createdAt,value
2019-04-30T00:01:55.754Z,9.13
2019-04-30T00:04:30.025Z,9.10
2019-04-30T00:06:59.636Z,9.08
2019-04-30T00:09:32.209Z,9.09
2019-04-30T00:12:05.625Z,9.11
2019-04-30T00:14:41.093Z,9.17
2019-04-30T00:17:16.029Z,9.23
2019-04-30T00:19:45.924Z,9.27
2019-04-30T00:22:30.498Z,9.33
2019-04-30T00:24:51.459Z,9.34
2019-04-30T00:27:26.409Z,9.37
2019-04-30T00:30:00.371Z,9.25
2019-04-30T00:32:31.184Z,9.30
2019-04-30T00:35:03.097Z,9.33
2019-04-30T00:37:35.371Z,9.42
2019-04-30T00:40:07.631Z,9.43
2019-04-30T00:42:38.802Z,9.48
2019-04-30T00:45:11.013Z,9.53
2019-04-30T00:47:44.540Z,9.50
2019-04-30T00:50:15.601Z,9.42
2019-04-30T00:52:47.457Z,9.46
2019-04-30T00:55:19.432Z,9.29
2019-04-30T00:57:51.377Z,9.53
2019-04-30T01:00:25.952Z,9.55
2019-04-30T01:03:09.390Z,9.57
2019-04-30T01:05:46.498Z,9.66
2019-04-30T01:08:15.428Z,9.51
2019-04-30T01:10:47.658Z,9.58
2019-04-30T01:13:19.506Z,9.60
2019-04-30T01:15:52.611Z,9.69
2019-04-30T01:18:28.609Z,9.73
2019-04-30T01:20:58.780Z,9.68
2019-04-30T01:23:31.651Z,9.68
2019-04-30T01:26:03.959Z,9.75
2019-04-30T01:28:35.723Z,9.83
2019-04-30T01:31:09.032Z,9.83
2019-04-30T01:33:40.928Z,9.92
2019-04-30T01:36:13.555Z,9.95
2019-04-30T01:38:49.078Z,9.95
2019-04-30T01:41:20.241Z,9.85
2019-04-30T01:43:53.013Z,9.81
2019-04-30T01:46:25.014Z,9.86
2019-04-30T01:48:58.514Z,9.86
2019-04-30T01:51:31.042Z,9.90
2019-04-30T01:54:02.941Z,9.90
2019-04-30T01:56:38.801Z,9.92
2019-04-30T01:59:24.222Z,9.79
2019-04-30T02:01:56.245Z,9.97
2019-04-30T02:04:28.983Z,9.99
2019-04-30T02:07:02.119Z,9.89
2019-04-30T02:09:33.955Z,9.93
2019-04-30T02:12:05.874Z,9.88
2019-04-30T02:14:39.482Z,9.80
2019-04-30T02:17:11.754Z,9.80
2019-04-30T02:19:54.171Z,9.68
2019-04-30T02:22:18.834Z,9.73
2019-04-30T02:24:50.949Z,9.79
2019-04-30T02:27:23.006Z,9.72
2019-04-30T02:29:55.104Z,9.87
2019-04-30T02:32:26.986Z,9.76
2019-04-30T02:35:12.210Z,9.87
2019-04-30T02:37:55.851Z,9.87
2019-04-30T02:40:45.633Z,9.74
2019-04-30T02:43:20.345Z,9.79
2019-04-30T02:45:54.542Z,9.89
2019-04-30T02:48:29.552Z,9.91
2019-04-30T02:51:03.914Z,9.87
2019-04-30T02:53:50.910Z,9.91
2019-04-30T02:56:26.669Z,10.00
2019-04-30T02:59:03.215Z,9.97
2019-04-30T03:01:31.371Z,10.05
2019-04-30T03:04:03.586Z,10.05
2019-04-30T03:06:35.654Z,10.09
2019-04-30T03:09:10.304Z,10.17
2019-04-30T03:11:41.446Z,10.12
2019-04-30T03:14:13.203Z,10.13
2019-04-30T03:16:52.524Z,10.12
2019-04-30T03:19:29.471Z,10.08
2019-04-30T03:22:05.461Z,10.16
2019-04-30T03:24:42.244Z,10.25
2019-04-30T03:27:12.162Z,10.45
2019-04-30T03:29:44.037Z,10.38
2019-04-30T03:32:16.182Z,10.46
2019-04-30T03:34:51.773Z,10.49
2019-04-30T03:37:21.346Z,10.41
2019-04-30T03:39:53.334Z,10.43
2019-04-30T03:42:25.872Z,10.18
2019-04-30T03:44:59.257Z,10.22
2019-04-30T03:47:31.055Z,10.23
2019-04-30T03:50:03.174Z,10.21
2019-04-30T03:52:34.785Z,10.43
2019-04-30T03:55:09.311Z,10.24
2019-04-30T03:57:40.976Z,10.35
2019-04-30T04:00:14.660Z,10.69
2019-04-30T04:02:49.857Z,10.69
2019-04-30T04:05:25.526Z,10.83
2019-04-30T04:08:04.833Z,10.71
2019-04-30T04:10:40.251Z,10.92
2019-04-30T04:13:12.263Z,11.13
2019-04-30T04:15:44.317Z,11.16
2019-04-30T04:18:16.641Z,11.31
2019-04-30T04:20:51.971Z,11.75
2019-04-30T04:23:21.360Z,11.85
2019-04-30T04:25:53.193Z,11.98
2019-04-30T04:28:25.604Z,11.83
2019-04-30T04:31:00.121Z,11.84
2019-04-30T04:33:31.229Z,11.78
2019-04-30T04:36:02.773Z,11.91
2019-04-30T04:38:34.455Z,11.93
2019-04-30T04:41:10.084Z,12.12
2019-04-30T04:43:40.711Z,12.08
2019-04-30T04:46:12.694Z,12.07
2019-04-30T04:48:44.797Z,12.18
2019-04-30T04:51:31.306Z,12.18
2019-04-30T04:53:50.434Z,11.99
2019-04-30T04:56:22.190Z,12.19
2019-04-30T04:58:54.278Z,12.27
2019-04-30T05:01:28.775Z,12.34
2019-04-30T05:04:00.443Z,12.36
2019-04-30T05:06:32.142Z,12.24
2019-04-30T05:09:05.409Z,12.19
2019-04-30T05:11:39.443Z,12.11
2019-04-30T05:14:11.142Z,12.24
2019-04-30T05:16:42.785Z,11.82
2019-04-30T05:19:15.054Z,12.10
2019-04-30T05:21:46.879Z,12.17
2019-04-30T05:24:19.136Z,12.11
2019-04-30T05:26:50.842Z,12.02
2019-04-30T05:29:22.979Z,12.06
2019-04-30T05:31:54.992Z,12.08
2019-04-30T05:34:28.839Z,12.25
2019-04-30T05:37:01.009Z,12.16
2019-04-30T05:39:33.069Z,12.31
2019-04-30T05:42:04.884Z,12.54
2019-04-30T05:44:37.052Z,12.58
2019-04-30T05:47:09.302Z,12.87
2019-04-30T05:50:13.946Z,13.34
2019-04-30T05:52:49.139Z,13.77
2019-04-30T05:55:21.825Z,13.79
2019-04-30T05:57:56.525Z,13.85
2019-04-30T06:00:30.266Z,13.75
2019-04-30T06:03:00.972Z,13.27
2019-04-30T06:05:32.803Z,13.31
2019-04-30T06:08:05.761Z,13.13
2019-04-30T06:10:39.623Z,13.10
2019-04-30T06:13:13.003Z,13.16
2019-04-30T06:15:46.523Z,13.29
2019-04-30T06:18:20.318Z,13.42
2019-04-30T06:20:52.280Z,13.44
2019-04-30T06:23:24.635Z,13.78
2019-04-30T06:26:00.600Z,14.19
2019-04-30T06:28:31.107Z,14.32
2019-04-30T06:31:03.065Z,14.26
2019-04-30T06:33:35.314Z,14.42
2019-04-30T06:36:08.537Z,14.47
2019-04-30T06:38:41.329Z,14.48
2019-04-30T06:41:13.502Z,14.51
2019-04-30T06:43:45.778Z,14.65
2019-04-30T06:46:18.685Z,14.87
2019-04-30T06:48:51.517Z,15.16
2019-04-30T06:51:23.380Z,15.48
2019-04-30T06:53:55.784Z,15.74
2019-04-30T06:56:28.949Z,16.13
2019-04-30T06:59:00.986Z,16.75
2019-04-30T07:01:32.524Z,17.21
2019-04-30T07:04:04.663Z,17.69
2019-04-30T07:06:37.103Z,17.41
2019-04-30T07:09:26.690Z,17.64
2019-04-30T07:12:09.780Z,18.35
2019-04-30T07:14:41.939Z,18.65
2019-04-30T07:17:12.918Z,18.39
2019-04-30T07:19:54.216Z,18.45
2019-04-30T07:22:20.685Z,18.74
2019-04-30T07:24:52.194Z,19.84
2019-04-30T07:27:24.414Z,20.38
2019-04-30T07:29:55.760Z,20.75
2019-04-30T07:32:28.765Z,21.09
2019-04-30T07:35:00.766Z,22.86
2019-04-30T07:37:31.702Z,26.48
2019-04-30T07:40:03.725Z,27.23
2019-04-30T07:42:39.813Z,28.76
2019-04-30T07:45:09.672Z,30.38
2019-04-30T07:47:41.548Z,30.06
2019-04-30T07:50:14.283Z,29.69
2019-04-30T07:55:20.173Z,27.24
2019-04-30T07:57:52.184Z,27.57
2019-04-30T08:00:24.486Z,27.91
2019-04-30T08:03:14.649Z,29.08
2019-04-30T08:05:49.855Z,28.51
2019-04-30T08:08:25.404Z,26.76
2019-04-30T08:09:35.523Z,29.60
2019-04-30T08:10:56.256Z,25.82
2019-04-30T08:13:31.840Z,25.36
2019-04-30T08:16:02.071Z,24.22
2019-04-30T08:18:34.102Z,24.13
2019-04-30T08:21:05.368Z,23.37
2019-04-30T08:23:39.207Z,22.34
2019-04-30T08:26:10.650Z,21.77
2019-04-30T08:28:42.348Z,21.52
2019-04-30T08:31:15.653Z,21.20
2019-04-30T08:33:49.034Z,20.58
2019-04-30T08:36:21.008Z,20.75
2019-04-30T08:38:52.975Z,19.70
2019-04-30T08:41:25.027Z,19.64
2019-04-30T08:43:57.091Z,19.54
2019-04-30T08:46:28.692Z,19.35
2019-04-30T08:49:00.917Z,19.40
2019-04-30T08:51:32.714Z,19.26
2019-04-30T08:54:04.740Z,19.26
2019-04-30T08:56:36.517Z,19.59
2019-04-30T08:59:10.986Z,19.64
2019-04-30T09:01:41.768Z,19.63
2019-04-30T09:04:13.730Z,18.43
2019-04-30T09:06:45.718Z,18.16
2019-04-30T09:09:18.868Z,18.53
2019-04-30T09:11:55.457Z,18.77
2019-04-30T09:14:24.599Z,18.56
2019-04-30T09:16:56.532Z,19.06
2019-04-30T09:19:29.792Z,18.72
2019-04-30T09:22:02.063Z,18.97
2019-04-30T09:24:34.011Z,18.82
2019-04-30T09:27:05.900Z,18.25
2019-04-30T09:29:39.154Z,18.26
2019-04-30T09:32:11.137Z,19.17
2019-04-30T09:34:43.882Z,18.69
2019-04-30T09:37:16.011Z,18.50
2019-04-30T09:39:49.419Z,17.61
2019-04-30T09:42:21.650Z,17.62
2019-04-30T09:44:57.014Z,17.32
2019-04-30T09:47:29.427Z,18.36
2019-04-30T09:50:01.225Z,18.71
2019-04-30T09:52:35.909Z,18.83
2019-04-30T09:55:09.421Z,19.02
2019-04-30T09:57:40.664Z,19.05
2019-04-30T10:00:13.515Z,19.35
2019-04-30T10:02:45.247Z,19.18
2019-04-30T10:05:19.543Z,18.95
2019-04-30T10:07:51.222Z,19.06
2019-04-30T10:10:25.617Z,18.45
2019-04-30T10:12:59.290Z,18.45
2019-04-30T10:15:35.633Z,18.32
2019-04-30T10:18:07.696Z,17.97
2019-04-30T10:20:42.054Z,17.94
2019-04-30T10:23:13.686Z,17.83
2019-04-30T10:25:46.728Z,17.05
2019-04-30T10:28:19.658Z,17.04
2019-04-30T10:30:51.465Z,17.09
2019-04-30T10:33:23.337Z,16.93
2019-04-30T10:35:55.294Z,16.91
2019-04-30T10:38:26.980Z,16.78
2019-04-30T10:40:59.424Z,16.74
2019-04-30T10:43:32.026Z,17.01
2019-04-30T10:46:03.283Z,16.94
2019-04-30T10:48:34.798Z,16.95
2019-04-30T10:51:06.671Z,17.06
2019-04-30T10:53:38.194Z,17.19
2019-04-30T10:56:10.738Z,17.53
2019-04-30T10:58:42.665Z,17.76
2019-04-30T11:01:14.617Z,17.51
2019-04-30T11:03:46.300Z,17.33
2019-04-30T11:06:19.197Z,17.14
2019-04-30T11:08:51.115Z,17.09
2019-04-30T11:11:23.180Z,16.96
2019-04-30T11:13:54.420Z,16.96
2019-04-30T11:16:26.025Z,16.91
2019-04-30T11:18:59.210Z,17.22
2019-04-30T11:21:31.666Z,17.13
2019-04-30T11:24:03.324Z,17.70
2019-04-30T11:26:35.225Z,17.14
2019-04-30T11:29:07.769Z,17.25
2019-04-30T11:31:41.403Z,17.26
2019-04-30T11:34:13.529Z,16.92
2019-04-30T11:36:45.171Z,17.17
2019-04-30T11:39:18.677Z,17.08
2019-04-30T11:41:50.678Z,16.98
2019-04-30T11:44:36.001Z,17.08
2019-04-30T11:47:02.338Z,17.20
2019-04-30T11:49:34.295Z,17.58
2019-04-30T11:52:06.429Z,17.34
2019-04-30T11:54:48.691Z,17.13
2019-04-30T11:57:11.309Z,17.13
2019-04-30T11:59:43.054Z,16.93
2019-04-30T12:02:19.066Z,17.06
2019-04-30T12:04:50.751Z,17.37
2019-04-30T12:07:33.505Z,17.27
2019-04-30T12:10:21.672Z,17.56
2019-04-30T12:12:53.514Z,17.63
2019-04-30T12:15:25.562Z,17.79
2019-04-30T12:17:57.553Z,17.79
2019-04-30T12:20:29.524Z,17.33
2019-04-30T12:23:01.818Z,17.18
2019-04-30T12:25:33.644Z,16.97
2019-04-30T12:28:05.795Z,16.73
2019-04-30T12:30:39.140Z,16.84
2019-04-30T12:33:10.953Z,17.05
2019-04-30T12:35:42.780Z,17.16
2019-04-30T12:38:15.282Z,17.51
2019-04-30T12:40:47.189Z,17.29
2019-04-30T12:43:19.301Z,17.28
2019-04-30T12:46:02.292Z,17.28
2019-04-30T12:48:31.718Z,16.54
2019-04-30T12:51:05.525Z,16.69
2019-04-30T12:53:39.164Z,16.49
2019-04-30T12:56:16.713Z,16.48
2019-04-30T12:58:48.382Z,15.95
2019-04-30T13:01:20.243Z,15.79
2019-04-30T13:03:58.624Z,15.69
2019-04-30T13:06:26.953Z,15.67
2019-04-30T13:09:00.396Z,15.40
2019-04-30T13:11:34.009Z,15.48
2019-04-30T13:14:07.725Z,15.80
2019-04-30T13:16:40.233Z,16.17
2019-04-30T13:19:15.247Z,15.78
2019-04-30T13:21:47.060Z,15.40
2019-04-30T13:24:18.969Z,15.08
2019-04-30T13:26:50.842Z,15.36
2019-04-30T13:29:27.009Z,15.09
2019-04-30T13:31:58.651Z,15.38
2019-04-30T13:34:47.496Z,15.28
2019-04-30T13:37:19.461Z,15.06
2019-04-30T13:40:01.871Z,14.83
2019-04-30T13:42:51.679Z,14.76
2019-04-30T13:45:23.411Z,14.73
2019-04-30T13:47:55.482Z,14.84
2019-04-30T13:50:29.229Z,15.00
2019-04-30T13:53:01.562Z,15.30
2019-04-30T13:55:42.915Z,15.20
2019-04-30T13:58:06.659Z,14.64
2019-04-30T14:00:39.711Z,14.46
2019-04-30T14:03:13.353Z,14.24
2019-04-30T14:05:45.312Z,14.15
2019-04-30T14:08:21.561Z,14.15
2019-04-30T14:10:53.514Z,14.29
2019-04-30T14:13:26.822Z,14.05
2019-04-30T14:15:58.852Z,14.16
2019-04-30T14:18:33.940Z,13.93
2019-04-30T14:21:04.533Z,13.88
2019-04-30T14:23:35.783Z,14.16
2019-04-30T14:26:09.328Z,13.75
2019-04-30T14:28:41.428Z,13.62
2019-04-30T14:31:13.504Z,13.79
2019-04-30T14:33:45.278Z,13.90
2019-04-30T14:36:19.367Z,13.74
2019-04-30T14:38:51.229Z,13.81
2019-04-30T14:41:23.588Z,13.68
2019-04-30T14:44:00.875Z,13.62
2019-04-30T14:46:47.650Z,13.24
2019-04-30T14:49:23.407Z,13.04
2019-04-30T14:51:56.333Z,12.98
2019-04-30T14:54:32.104Z,12.96
2019-04-30T14:57:05.198Z,12.94
2019-04-30T14:59:44.117Z,12.78
2019-04-30T15:02:23.614Z,12.81
2019-04-30T15:04:55.316Z,12.80
2019-04-30T15:07:29.439Z,12.64
2019-04-30T15:10:01.184Z,12.71
2019-04-30T15:12:34.884Z,12.68
2019-04-30T15:15:09.172Z,12.60
2019-04-30T15:17:41.750Z,12.57
2019-04-30T15:20:13.621Z,12.50
2019-04-30T15:22:48.423Z,12.50
2019-04-30T15:25:20.497Z,12.61
2019-04-30T15:27:52.564Z,12.40
2019-04-30T15:30:24.073Z,12.37
2019-04-30T15:33:00.543Z,12.31
2019-04-30T15:35:32.255Z,12.28
2019-04-30T15:38:04.416Z,12.21
2019-04-30T15:40:36.092Z,12.21
2019-04-30T15:43:08.941Z,12.13
2019-04-30T15:45:40.706Z,12.07
2019-04-30T15:48:13.254Z,12.07
2019-04-30T15:50:45.121Z,12.11
2019-04-30T15:53:17.168Z,12.11
2019-04-30T15:55:49.393Z,12.16
2019-04-30T15:58:23.255Z,12.20
2019-04-30T16:00:55.219Z,11.94
2019-04-30T16:03:34.729Z,11.87
2019-04-30T16:06:08.357Z,11.72
2019-04-30T16:08:41.786Z,11.61
2019-04-30T16:11:31.051Z,11.64
2019-04-30T16:14:22.889Z,11.43
2019-04-30T16:16:56.108Z,11.24
2019-04-30T16:19:28.834Z,11.21
2019-04-30T16:22:00.945Z,11.04
2019-04-30T16:24:33.326Z,10.95
2019-04-30T16:27:05.675Z,11.02
2019-04-30T16:29:38.727Z,11.02
2019-04-30T16:32:12.005Z,11.01
2019-04-30T16:34:44.019Z,10.97
2019-04-30T16:37:15.817Z,10.96
2019-04-30T16:39:47.716Z,10.79
2019-04-30T16:42:19.598Z,10.71
2019-04-30T16:44:51.586Z,10.67
2019-04-30T16:47:23.198Z,10.75
2019-04-30T16:49:55.354Z,10.67
2019-04-30T16:52:27.031Z,10.57
2019-04-30T16:54:59.112Z,10.53
2019-04-30T16:57:30.792Z,10.49
2019-04-30T17:00:03.023Z,10.41
2019-04-30T17:02:36.420Z,10.38
2019-04-30T17:05:21.789Z,10.38
2019-04-30T17:07:59.276Z,9.72
2019-04-30T17:10:44.842Z,10.19
2019-04-30T17:13:29.909Z,10.23
2019-04-30T17:16:03.659Z,10.11
2019-04-30T17:18:35.258Z,10.15
2019-04-30T17:21:07.238Z,10.12
2019-04-30T17:23:38.995Z,10.02
2019-04-30T17:26:11.401Z,10.04
2019-04-30T17:28:43.274Z,10.05
2019-04-30T17:31:15.079Z,10.10
2019-04-30T17:33:47.489Z,10.00
2019-04-30T17:36:19.249Z,9.97
2019-04-30T17:38:50.927Z,9.92
2019-04-30T17:41:23.165Z,9.94
2019-04-30T17:43:54.759Z,9.91
2019-04-30T17:46:28.473Z,9.89
2019-04-30T17:48:59.978Z,9.84
2019-04-30T17:51:31.744Z,9.81
2019-04-30T17:54:14.430Z,9.81
2019-04-30T17:56:46.890Z,9.88
2019-04-30T17:59:18.900Z,9.85
2019-04-30T18:01:53.313Z,9.85
2019-04-30T18:04:25.025Z,9.83
2019-04-30T18:06:59.076Z,9.74
2019-04-30T18:09:30.626Z,9.77
2019-04-30T18:12:02.447Z,9.75
2019-04-30T18:14:34.239Z,9.69
2019-04-30T18:17:05.863Z,9.71
2019-04-30T18:19:41.992Z,9.75
2019-04-30T18:22:19.489Z,9.65
2019-04-30T18:24:59.308Z,9.65
2019-04-30T18:27:42.961Z,9.61
2019-04-30T18:30:08.528Z,9.49
2019-04-30T18:32:40.137Z,9.49
2019-04-30T18:35:12.041Z,9.47
2019-04-30T18:37:44.050Z,9.46
2019-04-30T18:40:18.606Z,9.41
2019-04-30T18:42:50.187Z,9.39
2019-04-30T18:45:22.349Z,9.33
2019-04-30T18:47:54.144Z,9.31
2019-04-30T18:50:26.407Z,9.23
2019-04-30T18:52:59.703Z,9.20
2019-04-30T18:55:31.672Z,9.18
2019-04-30T18:58:03.624Z,9.17
2019-04-30T19:00:39.406Z,9.24
2019-04-30T19:03:10.840Z,9.24
2019-04-30T19:05:44.285Z,9.24
2019-04-30T19:08:34.015Z,9.24
2019-04-30T19:11:08.988Z,9.17
2019-04-30T19:13:45.509Z,9.18
2019-04-30T19:16:24.753Z,9.17
2019-04-30T19:19:09.449Z,9.09
2019-04-30T19:21:42.033Z,9.05
2019-04-30T19:24:13.770Z,9.06
2019-04-30T19:26:45.894Z,9.06
2019-04-30T19:29:17.385Z,9.02
2019-04-30T19:31:49.546Z,8.94
2019-04-30T19:34:21.206Z,8.95
2019-04-30T19:36:54.053Z,8.99
2019-04-30T19:39:26.022Z,8.96
2019-04-30T19:41:58.403Z,8.94
2019-04-30T19:44:31.512Z,8.95
2019-04-30T19:47:03.530Z,8.94
2019-04-30T19:49:35.230Z,8.91
2019-04-30T19:52:09.345Z,8.87
2019-04-30T19:54:40.655Z,8.86
2019-04-30T19:57:15.345Z,8.87
2019-04-30T19:59:46.912Z,8.83
2019-04-30T20:02:19.134Z,8.82
2019-04-30T20:04:52.041Z,8.87
2019-04-30T20:07:23.977Z,8.83
2019-04-30T20:10:03.227Z,8.81
2019-04-30T20:12:30.244Z,8.83
2019-04-30T20:15:02.196Z,8.83
2019-04-30T20:17:34.293Z,8.87
2019-04-30T20:20:10.955Z,8.80
2019-04-30T20:22:42.983Z,8.82
2019-04-30T20:25:14.592Z,8.86
2019-04-30T20:27:46.437Z,8.79
2019-04-30T20:30:19.546Z,8.83
2019-04-30T20:32:51.534Z,8.66
2019-04-30T20:35:23.447Z,8.90
2019-04-30T20:38:12.728Z,8.90
2019-04-30T20:40:57.800Z,8.86
2019-04-30T20:43:20.098Z,8.90
2019-04-30T20:45:52.172Z,8.86
2019-04-30T20:48:23.976Z,8.84
2019-04-30T20:50:56.057Z,8.83
2019-04-30T20:53:27.952Z,8.84
2019-04-30T20:56:00.156Z,8.84
2019-04-30T20:58:31.909Z,8.85
2019-04-30T21:01:06.633Z,8.87
2019-04-30T21:03:39.830Z,8.84
2019-04-30T21:06:11.704Z,8.84
2019-04-30T21:08:43.515Z,8.82
2019-04-30T21:11:15.602Z,8.82
2019-04-30T21:13:49.118Z,8.77
2019-04-30T21:16:21.301Z,8.75
2019-04-30T21:18:52.912Z,8.70
2019-04-30T21:21:25.027Z,8.72
2019-04-30T21:23:57.069Z,8.77
2019-04-30T21:26:29.757Z,8.77
2019-04-30T21:29:11.142Z,8.76
2019-04-30T21:31:36.430Z,8.77
2019-04-30T21:34:10.129Z,8.73
2019-04-30T21:36:42.105Z,8.71
2019-04-30T21:39:13.936Z,8.68
2019-04-30T21:41:45.991Z,8.68
2019-04-30T21:44:18.431Z,8.68
2019-04-30T21:46:49.279Z,8.65
2019-04-30T21:49:20.731Z,8.60
2019-04-30T21:51:52.429Z,8.63
2019-04-30T21:54:24.456Z,8.62
2019-04-30T21:56:56.376Z,8.65
2019-04-30T21:59:28.739Z,8.63
2019-04-30T22:02:01.528Z,8.61
2019-04-30T22:04:33.354Z,8.59
2019-04-30T22:07:05.386Z,8.54
2019-04-30T22:09:37.261Z,8.54
2019-04-30T22:12:09.286Z,8.53
2019-04-30T22:14:41.194Z,8.40
2019-04-30T22:17:13.694Z,8.29
2019-04-30T22:19:45.165Z,8.19
2019-04-30T22:22:17.092Z,8.09
2019-04-30T22:24:49.719Z,8.06
2019-04-30T22:27:21.869Z,8.08
2019-04-30T22:29:53.486Z,8.16
2019-04-30T22:32:25.292Z,8.11
2019-04-30T22:34:58.674Z,8.03
2019-04-30T22:37:30.537Z,8.09
2019-04-30T22:40:04.271Z,8.14
2019-04-30T22:42:36.689Z,8.11
2019-04-30T22:45:11.719Z,8.16
2019-04-30T22:47:43.333Z,8.15
2019-04-30T22:50:15.303Z,8.05
2019-04-30T22:52:46.805Z,8.08
2019-04-30T22:55:18.972Z,8.07
2019-04-30T22:57:50.506Z,8.09
2019-04-30T23:00:23.834Z,8.04
2019-04-30T23:02:59.773Z,8.08
2019-04-30T23:05:31.728Z,8.10
2019-04-30T23:08:03.373Z,8.06
2019-04-30T23:10:35.716Z,8.07
2019-04-30T23:13:07.831Z,8.08
2019-04-30T23:15:40.339Z,8.09
2019-04-30T23:18:11.949Z,8.06
2019-04-30T23:20:44.046Z,8.10
2019-04-30T23:23:15.563Z,8.06
2019-04-30T23:25:47.529Z,8.09
2019-04-30T23:28:19.937Z,8.08
2019-04-30T23:30:51.868Z,8.08
2019-04-30T23:33:23.852Z,8.09
2019-04-30T23:35:55.524Z,8.13
2019-04-30T23:38:27.770Z,8.10
2019-04-30T23:40:59.409Z,8.14
2019-04-30T23:43:31.368Z,8.17
2019-04-30T23:46:02.880Z,8.20
2019-04-30T23:48:34.896Z,8.20
2019-04-30T23:51:06.845Z,8.22
2019-04-30T23:53:38.653Z,8.25
2019-04-30T23:56:10.261Z,8.28
2019-04-30T23:58:43.399Z,8.17
